sensor_id;sensor_type;location;lat;lon;timestamp;pressure;altitude;pressure_sealevel;temperature;humidity
7918;BME280;4004;42.624;23.386;2023-02-18T00:01:09;94862.56;;;2.86;73.35
7918;BME280;4004;42.624;23.386;2023-02-18T00:03:36;94866.81;;;2.87;73.69
7918;BME280;4004;42.624;23.386;2023-02-18T00:06:10;94864.94;;;2.88;73.63
7918;BME280;4004;42.624;23.386;2023-02-18T00:08:36;94862.28;;;2.88;74.00
7918;BME280;4004;42.624;23.386;2023-02-18T00:11:05;94853.72;;;2.91;74.04
7918;BME280;4004;42.624;23.386;2023-02-18T00:13:32;94846.28;;;2.93;73.76
7918;BME280;4004;42.624;23.386;2023-02-18T00:16:00;94838.16;;;2.84;74.44
7918;BME280;4004;42.624;23.386;2023-02-18T00:18:27;94840.44;;;2.91;74.03
7918;BME280;4004;42.624;23.386;2023-02-18T00:20:54;94842.56;;;2.94;73.50
7918;BME280;4004;42.624;23.386;2023-02-18T00:23:20;94843.34;;;2.95;73.82
7918;BME280;4004;42.624;23.386;2023-02-18T00:25:47;94832.56;;;3.05;73.08
7918;BME280;4004;42.624;23.386;2023-02-18T00:28:15;94837.88;;;3.05;72.21
7918;BME280;4004;42.624;23.386;2023-02-18T00:30:42;94822.72;;;3.05;72.50
7918;BME280;4004;42.624;23.386;2023-02-18T00:33:09;94816.13;;;3.03;72.97
7918;BME280;4004;42.624;23.386;2023-02-18T00:35:36;94806.94;;;2.95;72.72
7918;BME280;4004;42.624;23.386;2023-02-18T00:38:02;94803.13;;;3.01;72.34
7918;BME280;4004;42.624;23.386;2023-02-18T00:40:29;94808.81;;;2.95;73.14
7918;BME280;4004;42.624;23.386;2023-02-18T00:42:56;94805.22;;;2.85;73.55
7918;BME280;4004;42.624;23.386;2023-02-18T00:45:24;94810.31;;;3.01;73.18
7918;BME280;4004;42.624;23.386;2023-02-18T00:47:51;94806.06;;;3.00;72.57
7918;BME280;4004;42.624;23.386;2023-02-18T00:50:17;94808.16;;;3.03;72.75
7918;BME280;4004;42.624;23.386;2023-02-18T00:52:44;94814.38;;;3.12;72.46
7918;BME280;4004;42.624;23.386;2023-02-18T00:55:11;94802.97;;;3.11;72.84
7918;BME280;4004;42.624;23.386;2023-02-18T00:57:38;94809.63;;;3.09;72.70
7918;BME280;4004;42.624;23.386;2023-02-18T01:00:06;94806.28;;;3.03;73.18
7918;BME280;4004;42.624;23.386;2023-02-18T01:02:34;94810.81;;;3.03;73.52
7918;BME280;4004;42.624;23.386;2023-02-18T01:05:01;94811.44;;;3.14;72.72
7918;BME280;4004;42.624;23.386;2023-02-18T01:07:28;94816.53;;;3.10;72.44
7918;BME280;4004;42.624;23.386;2023-02-18T01:09:54;94811.81;;;3.07;72.27
7918;BME280;4004;42.624;23.386;2023-02-18T01:12:21;94814.47;;;3.07;72.02
7918;BME280;4004;42.624;23.386;2023-02-18T01:14:48;94808.16;;;3.03;71.69
7918;BME280;4004;42.624;23.386;2023-02-18T01:17:14;94816.03;;;3.08;71.71
7918;BME280;4004;42.624;23.386;2023-02-18T01:19:43;94813.00;;;3.15;71.25
7918;BME280;4004;42.624;23.386;2023-02-18T01:22:10;94808.03;;;3.27;70.65
7918;BME280;4004;42.624;23.386;2023-02-18T01:24:36;94802.75;;;3.41;69.92
7918;BME280;4004;42.624;23.386;2023-02-18T01:27:04;94813.41;;;3.55;68.87
7918;BME280;4004;42.624;23.386;2023-02-18T01:29:30;94805.31;;;3.60;68.34
7918;BME280;4004;42.624;23.386;2023-02-18T01:31:57;94814.78;;;3.66;67.06
7918;BME280;4004;42.624;23.386;2023-02-18T01:34:24;94802.97;;;3.72;67.51
7918;BME280;4004;42.624;23.386;2023-02-18T01:36:52;94805.44;;;3.68;67.63
7918;BME280;4004;42.624;23.386;2023-02-18T01:39:18;94805.25;;;3.79;66.73
7918;BME280;4004;42.624;23.386;2023-02-18T01:41:45;94800.09;;;3.82;65.90
7918;BME280;4004;42.624;23.386;2023-02-18T01:44:14;94793.94;;;3.87;65.28
7918;BME280;4004;42.624;23.386;2023-02-18T01:46:41;94798.44;;;4.00;64.38
7918;BME280;4004;42.624;23.386;2023-02-18T01:49:09;94815.09;;;4.20;62.52
7918;BME280;4004;42.624;23.386;2023-02-18T01:51:40;94816.25;;;4.13;62.88
7918;BME280;4004;42.624;23.386;2023-02-18T01:54:12;94818.47;;;4.11;63.00
7918;BME280;4004;42.624;23.386;2023-02-18T01:56:41;94813.44;;;4.10;63.28
7918;BME280;4004;42.624;23.386;2023-02-18T01:59:15;94819.53;;;4.10;63.16
7918;BME280;4004;42.624;23.386;2023-02-18T02:01:44;94828.13;;;4.07;63.00
7918;BME280;4004;42.624;23.386;2023-02-18T02:04:12;94823.09;;;3.92;63.79
7918;BME280;4004;42.624;23.386;2023-02-18T02:06:39;94827.91;;;3.90;63.96
7918;BME280;4004;42.624;23.386;2023-02-18T02:09:07;94832.25;;;3.86;64.18
7918;BME280;4004;42.624;23.386;2023-02-18T02:12:01;94819.72;;;3.72;64.48
7918;BME280;4004;42.624;23.386;2023-02-18T02:14:42;94817.34;;;3.57;65.67
7918;BME280;4004;42.624;23.386;2023-02-18T02:17:17;94805.50;;;3.49;65.93
7918;BME280;4004;42.624;23.386;2023-02-18T02:20:29;94804.13;;;3.52;66.21
7918;BME280;4004;42.624;23.386;2023-02-18T02:26:16;94800.59;;;3.57;65.87
7918;BME280;4004;42.624;23.386;2023-02-18T02:29:03;94793.72;;;3.69;65.16
7918;BME280;4004;42.624;23.386;2023-02-18T02:32:07;94811.84;;;3.67;64.69
7918;BME280;4004;42.624;23.386;2023-02-18T02:34:51;94810.91;;;3.44;65.83
7918;BME280;4004;42.624;23.386;2023-02-18T02:37:26;94811.16;;;3.29;67.05
7918;BME280;4004;42.624;23.386;2023-02-18T02:40:02;94791.00;;;2.95;68.67
7918;BME280;4004;42.624;23.386;2023-02-18T02:42:39;94791.91;;;2.72;70.22
7918;BME280;4004;42.624;23.386;2023-02-18T02:45:13;94785.22;;;2.74;70.94
7918;BME280;4004;42.624;23.386;2023-02-18T02:47:48;94785.03;;;2.84;70.71
7918;BME280;4004;42.624;23.386;2023-02-18T02:50:20;94783.69;;;2.87;70.29
7918;BME280;4004;42.624;23.386;2023-02-18T02:52:54;94779.75;;;2.84;70.59
7918;BME280;4004;42.624;23.386;2023-02-18T02:55:23;94776.09;;;2.80;71.10
7918;BME280;4004;42.624;23.386;2023-02-18T02:57:51;94775.25;;;2.85;70.22
7918;BME280;4004;42.624;23.386;2023-02-18T03:00:20;94767.97;;;2.90;69.76
7918;BME280;4004;42.624;23.386;2023-02-18T03:03:01;94779.63;;;3.08;68.90
7918;BME280;4004;42.624;23.386;2023-02-18T03:05:38;94785.53;;;3.05;69.04
7918;BME280;4004;42.624;23.386;2023-02-18T03:08:22;94781.63;;;3.17;67.96
7918;BME280;4004;42.624;23.386;2023-02-18T03:10:55;94790.88;;;3.19;68.27
7918;BME280;4004;42.624;23.386;2023-02-18T03:13:36;94788.59;;;3.13;68.51
7918;BME280;4004;42.624;23.386;2023-02-18T03:16:13;94793.09;;;2.98;69.72
7918;BME280;4004;42.624;23.386;2023-02-18T03:18:47;94799.28;;;2.94;70.14
7918;BME280;4004;42.624;23.386;2023-02-18T03:21:22;94796.41;;;2.90;70.57
7918;BME280;4004;42.624;23.386;2023-02-18T03:23:54;94803.22;;;2.96;70.85
7918;BME280;4004;42.624;23.386;2023-02-18T03:26:23;94791.22;;;2.80;71.90
7918;BME280;4004;42.624;23.386;2023-02-18T03:28:53;94808.03;;;2.75;72.27
7918;BME280;4004;42.624;23.386;2023-02-18T03:31:24;94817.50;;;2.81;72.06
7918;BME280;4004;42.624;23.386;2023-02-18T03:33:56;94823.22;;;2.88;71.26
7918;BME280;4004;42.624;23.386;2023-02-18T03:36:26;94833.06;;;2.88;71.44
7918;BME280;4004;42.624;23.386;2023-02-18T03:38:58;94838.44;;;3.02;70.63
7918;BME280;4004;42.624;23.386;2023-02-18T03:41:25;94851.06;;;3.10;69.80
7918;BME280;4004;42.624;23.386;2023-02-18T03:43:54;94845.03;;;3.04;70.05
7918;BME280;4004;42.624;23.386;2023-02-18T03:46:25;94840.69;;;2.95;70.96
7918;BME280;4004;42.624;23.386;2023-02-18T03:48:52;94862.44;;;2.97;71.23
7918;BME280;4004;42.624;23.386;2023-02-18T03:51:19;94853.13;;;2.80;72.04
7918;BME280;4004;42.624;23.386;2023-02-18T03:53:47;94848.63;;;2.76;72.26
7918;BME280;4004;42.624;23.386;2023-02-18T03:56:14;94855.13;;;2.69;72.41
7918;BME280;4004;42.624;23.386;2023-02-18T03:58:42;94867.38;;;2.65;73.54
7918;BME280;4004;42.624;23.386;2023-02-18T04:01:08;94856.97;;;2.69;73.65
7918;BME280;4004;42.624;23.386;2023-02-18T04:03:35;94850.09;;;2.68;73.36
7918;BME280;4004;42.624;23.386;2023-02-18T04:06:02;94844.00;;;2.67;73.49
7918;BME280;4004;42.624;23.386;2023-02-18T04:08:29;94844.91;;;2.58;73.33
7918;BME280;4004;42.624;23.386;2023-02-18T04:10:57;94844.00;;;2.67;73.93
7918;BME280;4004;42.624;23.386;2023-02-18T04:13:23;94836.81;;;2.68;73.63
7918;BME280;4004;42.624;23.386;2023-02-18T04:15:50;94836.22;;;2.71;73.32
7918;BME280;4004;42.624;23.386;2023-02-18T04:18:18;94821.47;;;2.65;73.27
7918;BME280;4004;42.624;23.386;2023-02-18T04:20:45;94811.81;;;2.69;73.31
7918;BME280;4004;42.624;23.386;2023-02-18T04:23:11;94816.84;;;2.70;73.42
7918;BME280;4004;42.624;23.386;2023-02-18T04:25:38;94807.81;;;2.53;74.09
7918;BME280;4004;42.624;23.386;2023-02-18T04:28:07;94803.59;;;2.33;75.20
7918;BME280;4004;42.624;23.386;2023-02-18T04:30:35;94808.72;;;2.24;75.25
7918;BME280;4004;42.624;23.386;2023-02-18T04:33:02;94799.56;;;2.35;75.15
7918;BME280;4004;42.624;23.386;2023-02-18T04:35:29;94804.31;;;2.38;74.65
7918;BME280;4004;42.624;23.386;2023-02-18T04:37:55;94802.16;;;2.40;74.43
7918;BME280;4004;42.624;23.386;2023-02-18T04:40:22;94810.91;;;2.41;74.80
7918;BME280;4004;42.624;23.386;2023-02-18T04:42:50;94806.66;;;2.40;74.81
7918;BME280;4004;42.624;23.386;2023-02-18T04:45:19;94801.81;;;2.47;74.40
7918;BME280;4004;42.624;23.386;2023-02-18T04:47:45;94798.56;;;2.50;74.23
7918;BME280;4004;42.624;23.386;2023-02-18T04:50:12;94825.84;;;2.56;74.59
7918;BME280;4004;42.624;23.386;2023-02-18T04:52:39;94821.00;;;2.58;75.02
7918;BME280;4004;42.624;23.386;2023-02-18T04:55:06;94817.34;;;2.73;73.63
7918;BME280;4004;42.624;23.386;2023-02-18T04:57:33;94819.22;;;2.72;73.96
7918;BME280;4004;42.624;23.386;2023-02-18T05:00:00;94821.75;;;2.63;74.28
7918;BME280;4004;42.624;23.386;2023-02-18T05:02:29;94831.00;;;2.66;74.08
7918;BME280;4004;42.624;23.386;2023-02-18T05:04:55;94834.28;;;2.58;74.32
7918;BME280;4004;42.624;23.386;2023-02-18T05:07:22;94826.31;;;2.58;75.03
7918;BME280;4004;42.624;23.386;2023-02-18T05:09:49;94841.03;;;2.69;75.14
7918;BME280;4004;42.624;23.386;2023-02-18T05:12:16;94836.59;;;2.64;74.44
7918;BME280;4004;42.624;23.386;2023-02-18T05:14:42;94849.84;;;2.64;74.36
7918;BME280;4004;42.624;23.386;2023-02-18T05:17:09;94840.97;;;2.74;74.40
7918;BME280;4004;42.624;23.386;2023-02-18T05:19:37;94834.63;;;2.89;74.72
7918;BME280;4004;42.624;23.386;2023-02-18T05:22:04;94827.19;;;2.91;74.04
7918;BME280;4004;42.624;23.386;2023-02-18T05:24:31;94831.50;;;2.87;74.18
7918;BME280;4004;42.624;23.386;2023-02-18T05:26:57;94835.00;;;2.82;74.47
7918;BME280;4004;42.624;23.386;2023-02-18T05:29:24;94831.28;;;2.83;73.81
7918;BME280;4004;42.624;23.386;2023-02-18T05:31:51;94823.19;;;2.94;73.37
7918;BME280;4004;42.624;23.386;2023-02-18T05:34:18;94808.72;;;3.00;73.33
7918;BME280;4004;42.624;23.386;2023-02-18T05:36:46;94808.72;;;3.00;72.62
7918;BME280;4004;42.624;23.386;2023-02-18T05:39:12;94806.91;;;3.14;71.93
7918;BME280;4004;42.624;23.386;2023-02-18T05:41:39;94816.84;;;3.22;71.77
7918;BME280;4004;42.624;23.386;2023-02-18T05:44:06;94809.00;;;3.31;70.61
7918;BME280;4004;42.624;23.386;2023-02-18T05:46:50;94816.16;;;3.17;70.34
7918;BME280;4004;42.624;23.386;2023-02-18T05:49:16;94828.06;;;3.19;70.81
7918;BME280;4004;42.624;23.386;2023-02-18T05:51:43;94827.16;;;3.10;71.76
7918;BME280;4004;42.624;23.386;2023-02-18T05:54:11;94825.00;;;3.12;71.91
7918;BME280;4004;42.624;23.386;2023-02-18T05:56:38;94829.78;;;2.96;71.22
7918;BME280;4004;42.624;23.386;2023-02-18T05:59:04;94822.81;;;3.00;72.27
7918;BME280;4004;42.624;23.386;2023-02-18T06:01:31;94841.59;;;3.04;72.48
7918;BME280;4004;42.624;23.386;2023-02-18T06:03:58;94837.00;;;2.90;72.14
7918;BME280;4004;42.624;23.386;2023-02-18T06:06:25;94837.25;;;2.94;71.61
7918;BME280;4004;42.624;23.386;2023-02-18T06:08:51;94848.91;;;3.12;71.61
7918;BME280;4004;42.624;23.386;2023-02-18T06:11:20;94851.41;;;3.22;71.16
7918;BME280;4004;42.624;23.386;2023-02-18T06:13:46;94849.00;;;3.40;71.81
7918;BME280;4004;42.624;23.386;2023-02-18T06:16:13;94850.84;;;3.58;69.69
7918;BME280;4004;42.624;23.386;2023-02-18T06:18:40;94836.94;;;3.75;70.22
7918;BME280;4004;42.624;23.386;2023-02-18T06:21:06;94846.81;;;3.88;67.66
7918;BME280;4004;42.624;23.386;2023-02-18T06:23:33;94840.22;;;4.00;66.25
7918;BME280;4004;42.624;23.386;2023-02-18T06:26:00;94835.72;;;4.14;64.67
7918;BME280;4004;42.624;23.386;2023-02-18T06:28:28;94852.16;;;4.16;65.71
7918;BME280;4004;42.624;23.386;2023-02-18T06:30:54;94831.75;;;4.25;66.97
7918;BME280;4004;42.624;23.386;2023-02-18T06:33:21;94827.78;;;4.36;66.42
7918;BME280;4004;42.624;23.386;2023-02-18T06:35:53;94841.19;;;4.45;63.88
7918;BME280;4004;42.624;23.386;2023-02-18T06:38:20;94836.41;;;4.70;63.89
7918;BME280;4004;42.624;23.386;2023-02-18T06:40:48;94826.81;;;4.83;63.70
7918;BME280;4004;42.624;23.386;2023-02-18T06:43:15;94813.44;;;4.96;63.19
7918;BME280;4004;42.624;23.386;2023-02-18T06:45:44;94823.47;;;4.99;62.29
7918;BME280;4004;42.624;23.386;2023-02-18T06:48:11;94835.97;;;5.13;61.83
7918;BME280;4004;42.624;23.386;2023-02-18T06:50:39;94820.03;;;5.22;61.46
7918;BME280;4004;42.624;23.386;2023-02-18T06:53:06;94829.22;;;5.38;59.94
7918;BME280;4004;42.624;23.386;2023-02-18T06:55:33;94829.53;;;5.59;60.07
7918;BME280;4004;42.624;23.386;2023-02-18T06:57:59;94814.22;;;5.73;59.96
7918;BME280;4004;42.624;23.386;2023-02-18T07:00:26;94824.25;;;5.99;59.23
7918;BME280;4004;42.624;23.386;2023-02-18T07:02:54;94814.13;;;6.18;58.11
7918;BME280;4004;42.624;23.386;2023-02-18T07:05:21;94827.13;;;6.20;57.47
7918;BME280;4004;42.624;23.386;2023-02-18T07:07:48;94824.34;;;6.25;57.22
7918;BME280;4004;42.624;23.386;2023-02-18T07:10:15;94830.53;;;6.52;57.20
7918;BME280;4004;42.624;23.386;2023-02-18T07:12:41;94837.63;;;6.65;57.02
7918;BME280;4004;42.624;23.386;2023-02-18T07:15:09;94821.91;;;6.72;55.92
7918;BME280;4004;42.624;23.386;2023-02-18T07:17:36;94836.38;;;6.89;56.35
7918;BME280;4004;42.624;23.386;2023-02-18T07:20:06;94821.28;;;6.67;55.86
7918;BME280;4004;42.624;23.386;2023-02-18T07:22:33;94817.50;;;6.68;55.73
7918;BME280;4004;42.624;23.386;2023-02-18T07:24:59;94827.41;;;6.76;55.82
7918;BME280;4004;42.624;23.386;2023-02-18T07:27:26;94818.91;;;6.56;55.70
7918;BME280;4004;42.624;23.386;2023-02-18T07:29:53;94825.44;;;6.33;55.91
7918;BME280;4004;42.624;23.386;2023-02-18T07:32:20;94830.47;;;6.26;57.39
7918;BME280;4004;42.624;23.386;2023-02-18T07:34:46;94818.19;;;6.25;56.25
7918;BME280;4004;42.624;23.386;2023-02-18T07:37:15;94820.41;;;6.22;57.03
7918;BME280;4004;42.624;23.386;2023-02-18T07:39:42;94829.56;;;6.39;58.05
7918;BME280;4004;42.624;23.386;2023-02-18T07:42:09;94839.16;;;6.49;56.03
7918;BME280;4004;42.624;23.386;2023-02-18T07:44:36;94843.53;;;6.44;55.52
7918;BME280;4004;42.624;23.386;2023-02-18T07:47:03;94833.66;;;6.45;54.90
7918;BME280;4004;42.624;23.386;2023-02-18T07:49:30;94849.72;;;6.62;55.21
7918;BME280;4004;42.624;23.386;2023-02-18T07:51:57;94858.22;;;6.73;55.04
7918;BME280;4004;42.624;23.386;2023-02-18T07:54:26;94862.16;;;6.84;55.43
7918;BME280;4004;42.624;23.386;2023-02-18T07:56:53;94858.72;;;7.01;55.17
7918;BME280;4004;42.624;23.386;2023-02-18T07:59:20;94852.13;;;7.25;54.87
7918;BME280;4004;42.624;23.386;2023-02-18T08:01:47;94846.44;;;7.44;54.06
7918;BME280;4004;42.624;23.386;2023-02-18T08:04:14;94850.22;;;7.60;53.79
7918;BME280;4004;42.624;23.386;2023-02-18T08:06:42;94844.78;;;7.86;53.46
7918;BME280;4004;42.624;23.386;2023-02-18T08:09:10;94836.19;;;8.10;52.27
7918;BME280;4004;42.624;23.386;2023-02-18T08:11:39;94846.84;;;8.28;50.73
7918;BME280;4004;42.624;23.386;2023-02-18T08:14:06;94831.81;;;8.36;50.37
7918;BME280;4004;42.624;23.386;2023-02-18T08:16:34;94851.22;;;8.33;50.30
7918;BME280;4004;42.624;23.386;2023-02-18T08:19:01;94845.75;;;8.59;50.01
7918;BME280;4004;42.624;23.386;2023-02-18T08:21:29;94841.44;;;8.66;49.60
7918;BME280;4004;42.624;23.386;2023-02-18T08:23:57;94844.63;;;8.89;49.11
7918;BME280;4004;42.624;23.386;2023-02-18T08:26:23;94831.28;;;9.02;47.90
7918;BME280;4004;42.624;23.386;2023-02-18T08:28:51;94820.13;;;9.33;47.47
7918;BME280;4004;42.624;23.386;2023-02-18T08:31:20;94836.06;;;9.50;47.25
7918;BME280;4004;42.624;23.386;2023-02-18T08:33:47;94833.91;;;9.77;46.70
7918;BME280;4004;42.624;23.386;2023-02-18T08:36:14;94831.16;;;9.86;45.00
7918;BME280;4004;42.624;23.386;2023-02-18T08:38:41;94827.00;;;9.76;43.87
7918;BME280;4004;42.624;23.386;2023-02-18T08:41:08;94825.66;;;9.82;43.82
7918;BME280;4004;42.624;23.386;2023-02-18T08:43:35;94830.41;;;9.64;43.76
7918;BME280;4004;42.624;23.386;2023-02-18T08:46:04;94815.81;;;9.41;44.44
7918;BME280;4004;42.624;23.386;2023-02-18T08:48:31;94808.69;;;9.24;45.28
7918;BME280;4004;42.624;23.386;2023-02-18T08:50:58;94809.75;;;9.10;45.65
7918;BME280;4004;42.624;23.386;2023-02-18T08:53:25;94800.84;;;8.98;45.99
7918;BME280;4004;42.624;23.386;2023-02-18T08:55:51;94812.91;;;8.91;46.92
7918;BME280;4004;42.624;23.386;2023-02-18T08:58:18;94817.94;;;8.93;47.12
7918;BME280;4004;42.624;23.386;2023-02-18T09:00:45;94822.19;;;8.94;46.88
7918;BME280;4004;42.624;23.386;2023-02-18T09:03:14;94822.06;;;8.90;47.17
7918;BME280;4004;42.624;23.386;2023-02-18T09:05:41;94825.13;;;9.01;46.88
7918;BME280;4004;42.624;23.386;2023-02-18T09:08:08;94828.13;;;9.21;46.55
7918;BME280;4004;42.624;23.386;2023-02-18T09:10:35;94828.50;;;9.31;46.52
7918;BME280;4004;42.624;23.386;2023-02-18T09:13:03;94831.47;;;9.39;45.98
7918;BME280;4004;42.624;23.386;2023-02-18T09:15:30;94836.56;;;9.65;45.63
7918;BME280;4004;42.624;23.386;2023-02-18T09:17:57;94839.34;;;9.89;45.35
7918;BME280;4004;42.624;23.386;2023-02-18T09:20:25;94842.03;;;9.89;44.75
7918;BME280;4004;42.624;23.386;2023-02-18T09:22:53;94832.44;;;10.25;44.54
7918;BME280;4004;42.624;23.386;2023-02-18T09:25:19;94836.63;;;10.47;44.04
7918;BME280;4004;42.624;23.386;2023-02-18T09:27:46;94832.25;;;10.55;43.70
7918;BME280;4004;42.624;23.386;2023-02-18T09:30:14;94834.47;;;10.53;43.92
7918;BME280;4004;42.624;23.386;2023-02-18T09:32:40;94834.56;;;10.69;43.13
7918;BME280;4004;42.624;23.386;2023-02-18T09:35:07;94825.03;;;10.84;42.82
7918;BME280;4004;42.624;23.386;2023-02-18T09:37:36;94810.97;;;11.03;41.89
7918;BME280;4004;42.624;23.386;2023-02-18T09:40:05;94795.63;;;11.31;41.35
7918;BME280;4004;42.624;23.386;2023-02-18T09:42:33;94797.63;;;11.06;41.20
7918;BME280;4004;42.624;23.386;2023-02-18T09:45:03;94801.59;;;10.84;42.45
7918;BME280;4004;42.624;23.386;2023-02-18T09:47:33;94802.06;;;10.86;42.88
7918;BME280;4004;42.624;23.386;2023-02-18T09:50:05;94796.41;;;11.04;42.64
7918;BME280;4004;42.624;23.386;2023-02-18T09:52:36;94791.28;;;11.27;42.00
7918;BME280;4004;42.624;23.386;2023-02-18T09:55:15;94798.88;;;11.37;41.29
7918;BME280;4004;42.624;23.386;2023-02-18T09:57:44;94800.69;;;11.77;41.15
7918;BME280;4004;42.624;23.386;2023-02-18T10:00:14;94801.06;;;11.91;40.81
7918;BME280;4004;42.624;23.386;2023-02-18T10:02:51;94808.22;;;11.71;40.53
7918;BME280;4004;42.624;23.386;2023-02-18T10:05:20;94796.84;;;11.62;40.45
7918;BME280;4004;42.624;23.386;2023-02-18T10:07:50;94799.44;;;11.58;40.57
7918;BME280;4004;42.624;23.386;2023-02-18T10:10:26;94792.66;;;11.65;40.42
7918;BME280;4004;42.624;23.386;2023-02-18T10:12:55;94792.19;;;11.47;40.35
7918;BME280;4004;42.624;23.386;2023-02-18T10:15:26;94788.69;;;11.30;40.97
7918;BME280;4004;42.624;23.386;2023-02-18T10:17:54;94791.41;;;11.46;40.87
7918;BME280;4004;42.624;23.386;2023-02-18T10:20:23;94785.94;;;11.43;40.86
7918;BME280;4004;42.624;23.386;2023-02-18T10:22:53;94792.19;;;11.47;41.23
7918;BME280;4004;42.624;23.386;2023-02-18T10:25:22;94787.03;;;11.54;41.12
7918;BME280;4004;42.624;23.386;2023-02-18T10:27:51;94778.84;;;11.66;40.81
7918;BME280;4004;42.624;23.386;2023-02-18T10:30:22;94781.56;;;11.82;40.89
7918;BME280;4004;42.624;23.386;2023-02-18T10:32:51;94773.88;;;11.96;40.21
7918;BME280;4004;42.624;23.386;2023-02-18T10:55:16;94743.69;;;12.58;39.04
7918;BME280;4004;42.624;23.386;2023-02-18T10:57:48;94734.53;;;12.78;39.21
7918;BME280;4004;42.624;23.386;2023-02-18T11:00:17;94731.69;;;12.91;39.20
7918;BME280;4004;42.624;23.386;2023-02-18T11:02:45;94728.13;;;13.25;38.20
7918;BME280;4004;42.624;23.386;2023-02-18T11:05:26;94728.41;;;13.40;37.20
7918;BME280;4004;42.624;23.386;2023-02-18T11:07:55;94724.94;;;13.39;37.78
7918;BME280;4004;42.624;23.386;2023-02-18T11:10:27;94721.03;;;13.37;37.37
7918;BME280;4004;42.624;23.386;2023-02-18T11:12:57;94715.63;;;13.37;37.63
7918;BME280;4004;42.624;23.386;2023-02-18T11:15:27;94718.09;;;13.45;37.31
7918;BME280;4004;42.624;23.386;2023-02-18T11:17:55;94714.06;;;13.36;37.69
7918;BME280;4004;42.624;23.386;2023-02-18T11:20:29;94704.25;;;13.27;38.08
7918;BME280;4004;42.624;23.386;2023-02-18T11:22:58;94703.41;;;13.23;37.46
7918;BME280;4004;42.624;23.386;2023-02-18T11:25:41;94698.56;;;13.13;37.63
7918;BME280;4004;42.624;23.386;2023-02-18T11:28:27;94691.25;;;13.14;38.00
7918;BME280;4004;42.624;23.386;2023-02-18T11:30:56;94680.97;;;13.00;38.44
7918;BME280;4004;42.624;23.386;2023-02-18T11:33:31;94687.22;;;13.04;38.02
7918;BME280;4004;42.624;23.386;2023-02-18T11:36:04;94685.66;;;13.03;37.94
7918;BME280;4004;42.624;23.386;2023-02-18T11:38:35;94668.97;;;12.97;38.32
7918;BME280;4004;42.624;23.386;2023-02-18T11:41:08;94651.53;;;13.14;38.31
7918;BME280;4004;42.624;23.386;2023-02-18T11:43:36;94651.59;;;13.18;37.89
7918;BME280;4004;42.624;23.386;2023-02-18T11:46:11;94645.19;;;13.26;37.79
7918;BME280;4004;42.624;23.386;2023-02-18T11:48:39;94654.22;;;13.34;37.80
7918;BME280;4004;42.624;23.386;2023-02-18T11:51:14;94643.59;;;13.44;37.19
7918;BME280;4004;42.624;23.386;2023-02-18T11:53:54;94637.13;;;13.49;37.02
7918;BME280;4004;42.624;23.386;2023-02-18T11:56:26;94636.84;;;13.54;37.27
7918;BME280;4004;42.624;23.386;2023-02-18T11:58:53;94638.50;;;13.39;36.78
7918;BME280;4004;42.624;23.386;2023-02-18T12:01:30;94634.59;;;13.37;37.12
7918;BME280;4004;42.624;23.386;2023-02-18T12:04:03;94628.56;;;13.43;37.13
7918;BME280;4004;42.624;23.386;2023-02-18T12:06:34;94637.91;;;13.50;36.93
7918;BME280;4004;42.624;23.386;2023-02-18T12:09:05;94627.78;;;13.43;36.92
7918;BME280;4004;42.624;23.386;2023-02-18T12:11:37;94615.16;;;13.51;37.09
7918;BME280;4004;42.624;23.386;2023-02-18T12:14:12;94603.38;;;13.62;36.79
7918;BME280;4004;42.624;23.386;2023-02-18T12:16:47;94610.56;;;13.78;36.39
7918;BME280;4004;42.624;23.386;2023-02-18T12:22:33;94618.25;;;14.02;35.35
7918;BME280;4004;42.624;23.386;2023-02-18T12:25:19;94602.75;;;14.26;35.33
7918;BME280;4004;42.624;23.386;2023-02-18T12:27:57;94597.00;;;14.31;34.83
7918;BME280;4004;42.624;23.386;2023-02-18T12:30:41;94604.44;;;14.38;34.70
7918;BME280;4004;42.624;23.386;2023-02-18T12:33:18;94582.19;;;14.51;34.55
7918;BME280;4004;42.624;23.386;2023-02-18T12:36:06;94581.56;;;14.62;34.76
7918;BME280;4004;42.624;23.386;2023-02-18T12:38:54;94585.56;;;14.75;35.02
7918;BME280;4004;42.624;23.386;2023-02-18T12:41:34;94565.16;;;14.81;35.26
7918;BME280;4004;42.624;23.386;2023-02-18T12:44:15;94561.63;;;14.77;34.53
7918;BME280;4004;42.624;23.386;2023-02-18T12:46:58;94565.31;;;14.62;35.16
7918;BME280;4004;42.624;23.386;2023-02-18T12:49:43;94561.91;;;14.68;35.46
7918;BME280;4004;42.624;23.386;2023-02-18T12:52:23;94553.56;;;14.81;35.01
7918;BME280;4004;42.624;23.386;2023-02-18T12:57:46;94555.22;;;14.96;34.96
7918;BME280;4004;42.624;23.386;2023-02-18T13:00:34;94548.31;;;15.02;34.74
7918;BME280;4004;42.624;23.386;2023-02-18T13:03:34;94550.31;;;15.09;35.12
7918;BME280;4004;42.624;23.386;2023-02-18T13:06:12;94537.88;;;15.01;34.67
7918;BME280;4004;42.624;23.386;2023-02-18T13:08:47;94551.50;;;15.11;34.83
7918;BME280;4004;42.624;23.386;2023-02-18T13:11:28;94565.44;;;15.13;35.16
7918;BME280;4004;42.624;23.386;2023-02-18T13:14:03;94557.44;;;15.24;34.98
7918;BME280;4004;42.624;23.386;2023-02-18T13:16:37;94558.59;;;15.23;35.13
7918;BME280;4004;42.624;23.386;2023-02-18T13:19:13;94546.66;;;15.31;35.70
7918;BME280;4004;42.624;23.386;2023-02-18T13:21:44;94540.25;;;15.54;35.88
7918;BME280;4004;42.624;23.386;2023-02-18T13:24:20;94551.56;;;15.63;35.51
7918;BME280;4004;42.624;23.386;2023-02-18T13:26:49;94545.72;;;15.65;35.26
7918;BME280;4004;42.624;23.386;2023-02-18T13:29:24;94551.66;;;15.74;35.99
7918;BME280;4004;42.624;23.386;2023-02-18T13:32:03;94544.75;;;15.84;35.88
7918;BME280;4004;42.624;23.386;2023-02-18T13:34:40;94550.63;;;15.97;34.82
7918;BME280;4004;42.624;23.386;2023-02-18T13:37:18;94552.97;;;16.02;34.44
7918;BME280;4004;42.624;23.386;2023-02-18T13:39:49;94542.50;;;16.00;34.47
7918;BME280;4004;42.624;23.386;2023-02-18T13:42:36;94546.78;;;16.01;34.06
7918;BME280;4004;42.624;23.386;2023-02-18T13:45:22;94542.47;;;15.93;33.53
7918;BME280;4004;42.624;23.386;2023-02-18T13:47:52;94540.84;;;15.85;33.72
7918;BME280;4004;42.624;23.386;2023-02-18T13:50:29;94535.31;;;15.70;33.90
7918;BME280;4004;42.624;23.386;2023-02-18T13:53:18;94536.56;;;15.80;33.67
7918;BME280;4004;42.624;23.386;2023-02-18T13:55:51;94542.00;;;15.80;33.72
7918;BME280;4004;42.624;23.386;2023-02-18T13:58:21;94531.03;;;15.66;33.86
7918;BME280;4004;42.624;23.386;2023-02-18T14:00:53;94536.44;;;15.62;34.12
7918;BME280;4004;42.624;23.386;2023-02-18T14:03:34;94525.19;;;15.57;34.71